sensor_id;sensor_type;location;lat;lon;timestamp;P1;durP1;ratioP1;P2;durP2;ratioP2
75537;SDS011;64121;48.666;8.114;2023-06-22T00:01:38;9.15;;;6.82;;
75537;SDS011;64121;48.666;8.114;2023-06-22T00:04:04;8.77;;;6.57;;
75537;SDS011;64121;48.666;8.114;2023-06-22T00:06:30;10.35;;;7.90;;
75537;SDS011;64121;48.666;8.114;2023-06-22T00:08:56;8.50;;;6.90;;
75537;SDS011;64121;48.666;8.114;2023-06-22T00:11:21;8.20;;;6.72;;
75537;SDS011;64121;48.666;8.114;2023-06-22T00:13:46;8.02;;;5.97;;
75537;SDS011;64121;48.666;8.114;2023-06-22T00:16:12;8.48;;;6.63;;
75537;SDS011;64121;48.666;8.114;2023-06-22T00:18:37;8.60;;;6.78;;
75537;SDS011;64121;48.666;8.114;2023-06-22T00:21:02;7.90;;;6.50;;
75537;SDS011;64121;48.666;8.114;2023-06-22T00:23:29;9.75;;;6.82;;
75537;SDS011;64121;48.666;8.114;2023-06-22T00:25:54;9.38;;;6.57;;
75537;SDS011;64121;48.666;8.114;2023-06-22T00:28:20;8.82;;;6.40;;
75537;SDS011;64121;48.666;8.114;2023-06-22T00:30:45;8.30;;;6.50;;
75537;SDS011;64121;48.666;8.114;2023-06-22T00:33:11;9.07;;;6.15;;
75537;SDS011;64121;48.666;8.114;2023-06-22T00:35:36;8.18;;;6.63;;
75537;SDS011;64121;48.666;8.114;2023-06-22T00:38:01;7.18;;;6.25;;
75537;SDS011;64121;48.666;8.114;2023-06-22T00:40:28;7.22;;;6.10;;
75537;SDS011;64121;48.666;8.114;2023-06-22T00:42:54;10.18;;;7.15;;
75537;SDS011;64121;48.666;8.114;2023-06-22T00:45:19;7.28;;;5.82;;
75537;SDS011;64121;48.666;8.114;2023-06-22T00:47:45;9.15;;;6.60;;
75537;SDS011;64121;48.666;8.114;2023-06-22T00:50:10;6.70;;;5.78;;
75537;SDS011;64121;48.666;8.114;2023-06-22T00:52:43;7.38;;;5.97;;
75537;SDS011;64121;48.666;8.114;2023-06-22T00:55:09;7.85;;;6.57;;
75537;SDS011;64121;48.666;8.114;2023-06-22T00:57:36;8.65;;;6.47;;
75537;SDS011;64121;48.666;8.114;2023-06-22T01:00:01;7.10;;;6.15;;
75537;SDS011;64121;48.666;8.114;2023-06-22T01:02:27;8.18;;;6.57;;
75537;SDS011;64121;48.666;8.114;2023-06-22T01:04:52;8.25;;;6.97;;
75537;SDS011;64121;48.666;8.114;2023-06-22T01:07:19;9.05;;;7.00;;
75537;SDS011;64121;48.666;8.114;2023-06-22T01:09:49;7.47;;;6.25;;
75537;SDS011;64121;48.666;8.114;2023-06-22T01:12:22;9.55;;;6.95;;
75537;SDS011;64121;48.666;8.114;2023-06-22T01:14:50;7.25;;;6.07;;
75537;SDS011;64121;48.666;8.114;2023-06-22T01:17:20;8.60;;;6.60;;
75537;SDS011;64121;48.666;8.114;2023-06-22T01:19:48;7.68;;;6.25;;
75537;SDS011;64121;48.666;8.114;2023-06-22T01:22:16;7.78;;;6.20;;
75537;SDS011;64121;48.666;8.114;2023-06-22T01:24:45;8.52;;;6.43;;
75537;SDS011;64121;48.666;8.114;2023-06-22T01:27:23;9.02;;;6.53;;
75537;SDS011;64121;48.666;8.114;2023-06-22T01:29:59;7.88;;;6.05;;
75537;SDS011;64121;48.666;8.114;2023-06-22T01:32:27;7.15;;;5.57;;
75537;SDS011;64121;48.666;8.114;2023-06-22T01:34:55;8.38;;;5.68;;
75537;SDS011;64121;48.666;8.114;2023-06-22T01:37:21;7.93;;;5.63;;
75537;SDS011;64121;48.666;8.114;2023-06-22T01:39:46;6.43;;;5.72;;
75537;SDS011;64121;48.666;8.114;2023-06-22T01:42:12;7.78;;;6.07;;
75537;SDS011;64121;48.666;8.114;2023-06-22T01:44:38;7.60;;;5.40;;
75537;SDS011;64121;48.666;8.114;2023-06-22T01:47:06;7.65;;;5.72;;
75537;SDS011;64121;48.666;8.114;2023-06-22T01:49:32;8.20;;;6.15;;
75537;SDS011;64121;48.666;8.114;2023-06-22T01:51:57;7.63;;;6.28;;
75537;SDS011;64121;48.666;8.114;2023-06-22T01:54:23;8.32;;;6.63;;
75537;SDS011;64121;48.666;8.114;2023-06-22T01:56:49;8.65;;;6.88;;
75537;SDS011;64121;48.666;8.114;2023-06-22T01:59:15;8.15;;;6.63;;
75537;SDS011;64121;48.666;8.114;2023-06-22T02:01:48;7.55;;;6.32;;
75537;SDS011;64121;48.666;8.114;2023-06-22T02:04:21;7.95;;;6.18;;
75537;SDS011;64121;48.666;8.114;2023-06-22T02:09:20;9.57;;;5.90;;
75537;SDS011;64121;48.666;8.114;2023-06-22T02:11:48;7.00;;;5.97;;
75537;SDS011;64121;48.666;8.114;2023-06-22T02:14:17;7.85;;;5.95;;
75537;SDS011;64121;48.666;8.114;2023-06-22T02:16:43;6.95;;;5.63;;
75537;SDS011;64121;48.666;8.114;2023-06-22T02:19:08;8.45;;;5.63;;
75537;SDS011;64121;48.666;8.114;2023-06-22T02:21:35;10.02;;;6.70;;
75537;SDS011;64121;48.666;8.114;2023-06-22T02:24:00;6.53;;;5.38;;
75537;SDS011;64121;48.666;8.114;2023-06-22T02:26:26;8.45;;;6.15;;
75537;SDS011;64121;48.666;8.114;2023-06-22T02:28:55;9.77;;;6.15;;
75537;SDS011;64121;48.666;8.114;2023-06-22T02:31:20;6.93;;;5.88;;
75537;SDS011;64121;48.666;8.114;2023-06-22T02:33:45;7.82;;;6.40;;
75537;SDS011;64121;48.666;8.114;2023-06-22T02:36:11;6.25;;;5.50;;
75537;SDS011;64121;48.666;8.114;2023-06-22T02:38:37;6.80;;;5.97;;
75537;SDS011;64121;48.666;8.114;2023-06-22T02:41:03;7.90;;;5.50;;
75537;SDS011;64121;48.666;8.114;2023-06-22T02:43:28;8.82;;;6.80;;
75537;SDS011;64121;48.666;8.114;2023-06-22T02:45:54;8.63;;;6.22;;
75537;SDS011;64121;48.666;8.114;2023-06-22T02:48:20;9.15;;;6.47;;
75537;SDS011;64121;48.666;8.114;2023-06-22T02:50:45;7.35;;;6.55;;
75537;SDS011;64121;48.666;8.114;2023-06-22T02:53:10;8.57;;;6.35;;
75537;SDS011;64121;48.666;8.114;2023-06-22T02:55:37;10.27;;;6.25;;
75537;SDS011;64121;48.666;8.114;2023-06-22T02:58:02;8.27;;;6.25;;
75537;SDS011;64121;48.666;8.114;2023-06-22T03:00:28;7.45;;;5.82;;
75537;SDS011;64121;48.666;8.114;2023-06-22T03:02:53;9.57;;;6.07;;
75537;SDS011;64121;48.666;8.114;2023-06-22T03:05:18;7.18;;;6.35;;
75537;SDS011;64121;48.666;8.114;2023-06-22T03:07:44;10.20;;;7.28;;
75537;SDS011;64121;48.666;8.114;2023-06-22T03:10:10;10.20;;;7.22;;
75537;SDS011;64121;48.666;8.114;2023-06-22T03:12:37;10.35;;;7.68;;
75537;SDS011;64121;48.666;8.114;2023-06-22T03:15:04;9.90;;;8.27;;
75537;SDS011;64121;48.666;8.114;2023-06-22T03:17:30;9.40;;;7.93;;
75537;SDS011;64121;48.666;8.114;2023-06-22T03:19:56;9.80;;;7.40;;
75537;SDS011;64121;48.666;8.114;2023-06-22T03:22:21;10.52;;;7.78;;
75537;SDS011;64121;48.666;8.114;2023-06-22T03:24:46;10.48;;;7.45;;
75537;SDS011;64121;48.666;8.114;2023-06-22T03:27:12;8.82;;;7.70;;
75537;SDS011;64121;48.666;8.114;2023-06-22T03:29:38;11.02;;;7.63;;
75537;SDS011;64121;48.666;8.114;2023-06-22T03:32:04;8.68;;;7.07;;
75537;SDS011;64121;48.666;8.114;2023-06-22T03:34:30;12.93;;;8.07;;
75537;SDS011;64121;48.666;8.114;2023-06-22T03:36:55;10.65;;;6.80;;
75537;SDS011;64121;48.666;8.114;2023-06-22T03:39:21;9.27;;;6.50;;
75537;SDS011;64121;48.666;8.114;2023-06-22T03:41:46;7.07;;;5.72;;
75537;SDS011;64121;48.666;8.114;2023-06-22T03:44:11;8.60;;;6.70;;
75537;SDS011;64121;48.666;8.114;2023-06-22T03:46:38;10.57;;;6.85;;
75537;SDS011;64121;48.666;8.114;2023-06-22T03:49:03;7.97;;;6.55;;
75537;SDS011;64121;48.666;8.114;2023-06-22T03:51:29;7.22;;;6.10;;
75537;SDS011;64121;48.666;8.114;2023-06-22T03:53:55;8.52;;;6.25;;
75537;SDS011;64121;48.666;8.114;2023-06-22T03:56:21;9.45;;;6.88;;
75537;SDS011;64121;48.666;8.114;2023-06-22T03:58:46;6.50;;;5.72;;
75537;SDS011;64121;48.666;8.114;2023-06-22T04:01:11;9.27;;;6.55;;
75537;SDS011;64121;48.666;8.114;2023-06-22T04:03:38;8.60;;;6.22;;
75537;SDS011;64121;48.666;8.114;2023-06-22T04:06:04;8.63;;;6.72;;
75537;SDS011;64121;48.666;8.114;2023-06-22T04:08:29;11.32;;;7.80;;
75537;SDS011;64121;48.666;8.114;2023-06-22T04:10:55;8.43;;;6.65;;
75537;SDS011;64121;48.666;8.114;2023-06-22T04:13:20;9.32;;;6.90;;
75537;SDS011;64121;48.666;8.114;2023-06-22T04:15:46;11.27;;;8.18;;
75537;SDS011;64121;48.666;8.114;2023-06-22T04:18:11;8.20;;;6.85;;
75537;SDS011;64121;48.666;8.114;2023-06-22T04:20:38;8.98;;;7.40;;
75537;SDS011;64121;48.666;8.114;2023-06-22T04:23:03;8.55;;;7.00;;
75537;SDS011;64121;48.666;8.114;2023-06-22T04:25:29;10.20;;;7.63;;
75537;SDS011;64121;48.666;8.114;2023-06-22T04:27:54;10.93;;;6.78;;
75537;SDS011;64121;48.666;8.114;2023-06-22T04:30:19;8.80;;;6.82;;
75537;SDS011;64121;48.666;8.114;2023-06-22T04:32:45;11.82;;;7.30;;
75537;SDS011;64121;48.666;8.114;2023-06-22T04:35:10;7.82;;;6.15;;
75537;SDS011;64121;48.666;8.114;2023-06-22T04:37:37;10.95;;;6.78;;
75537;SDS011;64121;48.666;8.114;2023-06-22T04:40:03;9.15;;;6.28;;
75537;SDS011;64121;48.666;8.114;2023-06-22T04:42:29;9.27;;;5.93;;
75537;SDS011;64121;48.666;8.114;2023-06-22T04:44:54;9.07;;;6.47;;
75537;SDS011;64121;48.666;8.114;2023-06-22T04:47:20;8.82;;;6.40;;
75537;SDS011;64121;48.666;8.114;2023-06-22T04:49:45;9.13;;;6.40;;
75537;SDS011;64121;48.666;8.114;2023-06-22T04:52:11;8.77;;;7.50;;
75537;SDS011;64121;48.666;8.114;2023-06-22T04:54:39;10.00;;;6.85;;
75537;SDS011;64121;48.666;8.114;2023-06-22T04:57:06;13.07;;;8.02;;
75537;SDS011;64121;48.666;8.114;2023-06-22T04:59:32;11.85;;;7.88;;
75537;SDS011;64121;48.666;8.114;2023-06-22T05:01:58;8.55;;;6.85;;
75537;SDS011;64121;48.666;8.114;2023-06-22T05:04:25;11.88;;;8.90;;
75537;SDS011;64121;48.666;8.114;2023-06-22T05:06:51;13.93;;;8.35;;
75537;SDS011;64121;48.666;8.114;2023-06-22T05:09:16;12.57;;;8.27;;
75537;SDS011;64121;48.666;8.114;2023-06-22T05:11:44;11.07;;;7.90;;
75537;SDS011;64121;48.666;8.114;2023-06-22T05:14:09;8.18;;;6.85;;
75537;SDS011;64121;48.666;8.114;2023-06-22T05:16:35;9.95;;;7.82;;
75537;SDS011;64121;48.666;8.114;2023-06-22T05:19:01;8.55;;;7.28;;
75537;SDS011;64121;48.666;8.114;2023-06-22T05:21:26;8.73;;;7.35;;
75537;SDS011;64121;48.666;8.114;2023-06-22T05:23:52;9.60;;;7.40;;
75537;SDS011;64121;48.666;8.114;2023-06-22T05:26:17;8.70;;;6.65;;
75537;SDS011;64121;48.666;8.114;2023-06-22T05:28:44;8.63;;;6.93;;
75537;SDS011;64121;48.666;8.114;2023-06-22T05:31:10;11.25;;;7.43;;
75537;SDS011;64121;48.666;8.114;2023-06-22T05:33:35;8.35;;;7.13;;
75537;SDS011;64121;48.666;8.114;2023-06-22T05:36:00;10.30;;;7.28;;
75537;SDS011;64121;48.666;8.114;2023-06-22T05:38:26;10.68;;;7.50;;
75537;SDS011;64121;48.666;8.114;2023-06-22T05:40:51;10.40;;;7.60;;
75537;SDS011;64121;48.666;8.114;2023-06-22T05:43:16;8.32;;;7.30;;
75537;SDS011;64121;48.666;8.114;2023-06-22T05:45:43;10.60;;;7.32;;
75537;SDS011;64121;48.666;8.114;2023-06-22T05:48:08;7.93;;;7.00;;
75537;SDS011;64121;48.666;8.114;2023-06-22T05:50:34;12.48;;;8.25;;
75537;SDS011;64121;48.666;8.114;2023-06-22T05:52:59;7.97;;;6.57;;
75537;SDS011;64121;48.666;8.114;2023-06-22T05:55:24;9.82;;;6.97;;
75537;SDS011;64121;48.666;8.114;2023-06-22T05:57:50;11.65;;;7.90;;
75537;SDS011;64121;48.666;8.114;2023-06-22T06:00:15;10.85;;;7.90;;
75537;SDS011;64121;48.666;8.114;2023-06-22T06:02:43;9.43;;;6.47;;
75537;SDS011;64121;48.666;8.114;2023-06-22T06:05:08;10.52;;;7.15;;
75537;SDS011;64121;48.666;8.114;2023-06-22T06:07:34;8.48;;;7.10;;
75537;SDS011;64121;48.666;8.114;2023-06-22T06:09:59;9.35;;;7.70;;
75537;SDS011;64121;48.666;8.114;2023-06-22T06:12:24;11.15;;;8.32;;
75537;SDS011;64121;48.666;8.114;2023-06-22T06:14:50;10.82;;;7.57;;
75537;SDS011;64121;48.666;8.114;2023-06-22T06:17:15;7.68;;;6.88;;
75537;SDS011;64121;48.666;8.114;2023-06-22T06:19:42;9.55;;;8.07;;
75537;SDS011;64121;48.666;8.114;2023-06-22T06:22:07;10.35;;;7.25;;
75537;SDS011;64121;48.666;8.114;2023-06-22T06:24:32;8.88;;;7.07;;
75537;SDS011;64121;48.666;8.114;2023-06-22T06:26:58;8.98;;;6.72;;
75537;SDS011;64121;48.666;8.114;2023-06-22T06:29:23;10.43;;;7.72;;
75537;SDS011;64121;48.666;8.114;2023-06-22T06:31:48;8.95;;;6.57;;
75537;SDS011;64121;48.666;8.114;2023-06-22T06:34:14;9.13;;;7.22;;
75537;SDS011;64121;48.666;8.114;2023-06-22T06:36:40;9.57;;;6.88;;
75537;SDS011;64121;48.666;8.114;2023-06-22T06:39:06;10.20;;;7.60;;
75537;SDS011;64121;48.666;8.114;2023-06-22T06:41:31;11.13;;;7.30;;
75537;SDS011;64121;48.666;8.114;2023-06-22T06:43:56;8.75;;;7.10;;
75537;SDS011;64121;48.666;8.114;2023-06-22T06:46:22;8.55;;;6.72;;
75537;SDS011;64121;48.666;8.114;2023-06-22T06:48:47;11.00;;;7.35;;
75537;SDS011;64121;48.666;8.114;2023-06-22T06:51:12;9.63;;;6.95;;
75537;SDS011;64121;48.666;8.114;2023-06-22T06:53:39;8.38;;;6.15;;
75537;SDS011;64121;48.666;8.114;2023-06-22T06:56:05;11.38;;;7.65;;
75537;SDS011;64121;48.666;8.114;2023-06-22T06:58:30;8.80;;;7.20;;
75537;SDS011;64121;48.666;8.114;2023-06-22T07:00:56;11.38;;;7.20;;
75537;SDS011;64121;48.666;8.114;2023-06-22T07:03:21;11.07;;;8.00;;
75537;SDS011;64121;48.666;8.114;2023-06-22T07:05:46;7.97;;;6.30;;
75537;SDS011;64121;48.666;8.114;2023-06-22T07:08:12;8.40;;;7.50;;
75537;SDS011;64121;48.666;8.114;2023-06-22T07:10:38;11.30;;;7.55;;
75537;SDS011;64121;48.666;8.114;2023-06-22T07:13:04;15.50;;;7.95;;
75537;SDS011;64121;48.666;8.114;2023-06-22T07:15:29;9.85;;;6.80;;
75537;SDS011;64121;48.666;8.114;2023-06-22T07:17:55;8.15;;;7.30;;
75537;SDS011;64121;48.666;8.114;2023-06-22T07:20:20;10.57;;;7.10;;
75537;SDS011;64121;48.666;8.114;2023-06-22T07:22:45;9.80;;;7.30;;
75537;SDS011;64121;48.666;8.114;2023-06-22T07:25:11;11.60;;;8.30;;
75537;SDS011;64121;48.666;8.114;2023-06-22T07:27:38;10.70;;;7.68;;
75537;SDS011;64121;48.666;8.114;2023-06-22T07:30:05;10.48;;;7.22;;
75537;SDS011;64121;48.666;8.114;2023-06-22T07:32:31;10.77;;;7.28;;
75537;SDS011;64121;48.666;8.114;2023-06-22T07:34:56;9.13;;;7.10;;
75537;SDS011;64121;48.666;8.114;2023-06-22T07:37:22;9.68;;;6.47;;
75537;SDS011;64121;48.666;8.114;2023-06-22T07:39:47;11.85;;;7.47;;
75537;SDS011;64121;48.666;8.114;2023-06-22T07:42:12;11.20;;;6.40;;
75537;SDS011;64121;48.666;8.114;2023-06-22T07:44:40;8.40;;;6.72;;
75537;SDS011;64121;48.666;8.114;2023-06-22T07:47:05;9.73;;;6.80;;
75537;SDS011;64121;48.666;8.114;2023-06-22T07:49:31;9.77;;;7.53;;
75537;SDS011;64121;48.666;8.114;2023-06-22T07:51:56;10.50;;;7.40;;
75537;SDS011;64121;48.666;8.114;2023-06-22T07:54:21;8.57;;;7.65;;
75537;SDS011;64121;48.666;8.114;2023-06-22T07:56:47;10.52;;;8.10;;
75537;SDS011;64121;48.666;8.114;2023-06-22T07:59:12;10.98;;;8.10;;
75537;SDS011;64121;48.666;8.114;2023-06-22T08:01:39;11.25;;;8.95;;
75537;SDS011;64121;48.666;8.114;2023-06-22T08:04:04;14.13;;;9.45;;
75537;SDS011;64121;48.666;8.114;2023-06-22T08:06:29;10.95;;;8.98;;
75537;SDS011;64121;48.666;8.114;2023-06-22T08:08:55;12.50;;;9.07;;
75537;SDS011;64121;48.666;8.114;2023-06-22T08:11:20;10.18;;;8.20;;
75537;SDS011;64121;48.666;8.114;2023-06-22T08:13:46;13.82;;;9.27;;
75537;SDS011;64121;48.666;8.114;2023-06-22T08:16:11;10.15;;;7.82;;
75537;SDS011;64121;48.666;8.114;2023-06-22T08:18:38;10.75;;;9.02;;
75537;SDS011;64121;48.666;8.114;2023-06-22T08:21:03;13.10;;;8.82;;
75537;SDS011;64121;48.666;8.114;2023-06-22T08:23:28;11.50;;;8.80;;
75537;SDS011;64121;48.666;8.114;2023-06-22T08:25:54;12.90;;;8.25;;
75537;SDS011;64121;48.666;8.114;2023-06-22T08:28:19;11.82;;;8.98;;
75537;SDS011;64121;48.666;8.114;2023-06-22T08:30:44;13.27;;;8.27;;
75537;SDS011;64121;48.666;8.114;2023-06-22T08:33:10;10.23;;;8.10;;
75537;SDS011;64121;48.666;8.114;2023-06-22T08:35:37;10.02;;;7.70;;
75537;SDS011;64121;48.666;8.114;2023-06-22T08:38:02;9.13;;;7.50;;
75537;SDS011;64121;48.666;8.114;2023-06-22T08:40:27;9.75;;;7.03;;
75537;SDS011;64121;48.666;8.114;2023-06-22T08:42:53;8.57;;;6.80;;
75537;SDS011;64121;48.666;8.114;2023-06-22T08:45:18;7.85;;;6.57;;
75537;SDS011;64121;48.666;8.114;2023-06-22T08:47:43;9.73;;;6.95;;
75537;SDS011;64121;48.666;8.114;2023-06-22T08:50:09;10.38;;;7.28;;
75537;SDS011;64121;48.666;8.114;2023-06-22T08:52:37;15.18;;;8.38;;
75537;SDS011;64121;48.666;8.114;2023-06-22T08:55:04;11.55;;;7.68;;
75537;SDS011;64121;48.666;8.114;2023-06-22T08:57:30;10.00;;;7.80;;
75537;SDS011;64121;48.666;8.114;2023-06-22T08:59:56;10.95;;;8.10;;
75537;SDS011;64121;48.666;8.114;2023-06-22T09:02:21;10.40;;;7.75;;
75537;SDS011;64121;48.666;8.114;2023-06-22T09:04:46;9.55;;;7.60;;
75537;SDS011;64121;48.666;8.114;2023-06-22T09:07:12;9.18;;;8.02;;
75537;SDS011;64121;48.666;8.114;2023-06-22T09:09:38;13.18;;;8.27;;
75537;SDS011;64121;48.666;8.114;2023-06-22T09:12:04;9.15;;;7.57;;
75537;SDS011;64121;48.666;8.114;2023-06-22T09:14:30;15.90;;;8.10;;
75537;SDS011;64121;48.666;8.114;2023-06-22T09:16:55;10.27;;;8.02;;
75537;SDS011;64121;48.666;8.114;2023-06-22T09:19:21;10.88;;;7.82;;
75537;SDS011;64121;48.666;8.114;2023-06-22T09:21:46;10.85;;;7.85;;
75537;SDS011;64121;48.666;8.114;2023-06-22T09:24:12;10.15;;;7.63;;
75537;SDS011;64121;48.666;8.114;2023-06-22T09:26:38;8.20;;;7.28;;
75537;SDS011;64121;48.666;8.114;2023-06-22T09:29:04;11.82;;;7.82;;
75537;SDS011;64121;48.666;8.114;2023-06-22T09:31:30;9.52;;;8.20;;
75537;SDS011;64121;48.666;8.114;2023-06-22T09:33:55;9.30;;;7.65;;
75537;SDS011;64121;48.666;8.114;2023-06-22T09:36:20;10.15;;;8.35;;
75537;SDS011;64121;48.666;8.114;2023-06-22T09:38:46;9.02;;;6.88;;
75537;SDS011;64121;48.666;8.114;2023-06-22T09:41:11;10.43;;;7.45;;
75537;SDS011;64121;48.666;8.114;2023-06-22T09:43:38;11.02;;;7.18;;
75537;SDS011;64121;48.666;8.114;2023-06-22T09:46:03;11.55;;;7.15;;
75537;SDS011;64121;48.666;8.114;2023-06-22T09:48:28;9.68;;;8.13;;
75537;SDS011;64121;48.666;8.114;2023-06-22T09:50:54;9.30;;;6.78;;
75537;SDS011;64121;48.666;8.114;2023-06-22T09:53:19;8.60;;;7.45;;
75537;SDS011;64121;48.666;8.114;2023-06-22T09:55:45;9.35;;;6.88;;
75537;SDS011;64121;48.666;8.114;2023-06-22T09:58:10;10.52;;;8.50;;
75537;SDS011;64121;48.666;8.114;2023-06-22T10:00:37;9.93;;;6.20;;
75537;SDS011;64121;48.666;8.114;2023-06-22T10:03:02;9.10;;;6.43;;
75537;SDS011;64121;48.666;8.114;2023-06-22T10:05:27;11.38;;;6.13;;
75537;SDS011;64121;48.666;8.114;2023-06-22T10:07:53;9.65;;;7.43;;
75537;SDS011;64121;48.666;8.114;2023-06-22T10:10:18;9.02;;;7.32;;
75537;SDS011;64121;48.666;8.114;2023-06-22T10:12:45;9.13;;;6.85;;
75537;SDS011;64121;48.666;8.114;2023-06-22T10:15:11;13.30;;;6.72;;
75537;SDS011;64121;48.666;8.114;2023-06-22T10:17:38;10.15;;;6.75;;
75537;SDS011;64121;48.666;8.114;2023-06-22T10:20:04;8.60;;;6.60;;
75537;SDS011;64121;48.666;8.114;2023-06-22T10:22:30;8.65;;;6.55;;
75537;SDS011;64121;48.666;8.114;2023-06-22T10:24:55;10.80;;;7.28;;
75537;SDS011;64121;48.666;8.114;2023-06-22T10:27:21;12.43;;;7.32;;
75537;SDS011;64121;48.666;8.114;2023-06-22T10:29:46;8.55;;;6.20;;
75537;SDS011;64121;48.666;8.114;2023-06-22T10:32:11;8.48;;;6.28;;
75537;SDS011;64121;48.666;8.114;2023-06-22T10:34:38;9.43;;;6.82;;
75537;SDS011;64121;48.666;8.114;2023-06-22T10:37:04;7.63;;;6.15;;
75537;SDS011;64121;48.666;8.114;2023-06-22T10:39:29;8.32;;;5.80;;
75537;SDS011;64121;48.666;8.114;2023-06-22T10:41:55;8.82;;;6.60;;
75537;SDS011;64121;48.666;8.114;2023-06-22T10:44:20;9.75;;;6.78;;
75537;SDS011;64121;48.666;8.114;2023-06-22T10:46:45;9.93;;;6.35;;
75537;SDS011;64121;48.666;8.114;2023-06-22T10:49:11;8.98;;;6.70;;
75537;SDS011;64121;48.666;8.114;2023-06-22T10:51:37;9.65;;;6.53;;
75537;SDS011;64121;48.666;8.114;2023-06-22T10:54:03;9.27;;;7.47;;
75537;SDS011;64121;48.666;8.114;2023-06-22T10:56:28;11.35;;;7.38;;
75537;SDS011;64121;48.666;8.114;2023-06-22T10:58:53;9.02;;;7.00;;
75537;SDS011;64121;48.666;8.114;2023-06-22T11:01:19;11.10;;;7.60;;
75537;SDS011;64121;48.666;8.114;2023-06-22T11:03:45;10.27;;;7.53;;
75537;SDS011;64121;48.666;8.114;2023-06-22T11:06:10;10.70;;;8.00;;
75537;SDS011;64121;48.666;8.114;2023-06-22T11:08:37;10.00;;;6.65;;
75537;SDS011;64121;48.666;8.114;2023-06-22T11:11:02;11.63;;;7.18;;
75537;SDS011;64121;48.666;8.114;2023-06-22T11:13:28;8.32;;;6.70;;
75537;SDS011;64121;48.666;8.114;2023-06-22T11:15:53;10.90;;;7.57;;
75537;SDS011;64121;48.666;8.114;2023-06-22T11:18:18;9.20;;;7.38;;
75537;SDS011;64121;48.666;8.114;2023-06-22T11:20:44;9.98;;;7.53;;
75537;SDS011;64121;48.666;8.114;2023-06-22T11:23:09;11.85;;;7.60;;
75537;SDS011;64121;48.666;8.114;2023-06-22T11:25:36;12.55;;;8.13;;
75537;SDS011;64121;48.666;8.114;2023-06-22T11:28:01;10.43;;;7.25;;
75537;SDS011;64121;48.666;8.114;2023-06-22T11:30:27;9.35;;;7.10;;
75537;SDS011;64121;48.666;8.114;2023-06-22T11:32:52;12.25;;;7.72;;
75537;SDS011;64121;48.666;8.114;2023-06-22T11:35:18;9.57;;;6.32;;
75537;SDS011;64121;48.666;8.114;2023-06-22T11:37:43;10.23;;;7.22;;
75537;SDS011;64121;48.666;8.114;2023-06-22T11:40:09;7.93;;;6.60;;
75537;SDS011;64121;48.666;8.114;2023-06-22T11:42:36;9.60;;;6.97;;
75537;SDS011;64121;48.666;8.114;2023-06-22T11:45:02;8.18;;;6.13;;
75537;SDS011;64121;48.666;8.114;2023-06-22T11:47:30;10.98;;;7.18;;
75537;SDS011;64121;48.666;8.114;2023-06-22T11:49:55;10.57;;;7.65;;
75537;SDS011;64121;48.666;8.114;2023-06-22T11:52:21;9.25;;;6.63;;
75537;SDS011;64121;48.666;8.114;2023-06-22T11:54:46;8.07;;;6.95;;
75537;SDS011;64121;48.666;8.114;2023-06-22T11:57:11;10.20;;;7.38;;
75537;SDS011;64121;48.666;8.114;2023-06-22T11:59:38;9.40;;;7.07;;
75537;SDS011;64121;48.666;8.114;2023-06-22T12:02:03;10.05;;;8.05;;
75537;SDS011;64121;48.666;8.114;2023-06-22T12:04:29;10.95;;;7.63;;
75537;SDS011;64121;48.666;8.114;2023-06-22T12:06:54;9.57;;;7.80;;
75537;SDS011;64121;48.666;8.114;2023-06-22T12:09:19;11.68;;;7.68;;
75537;SDS011;64121;48.666;8.114;2023-06-22T12:11:45;10.43;;;7.95;;
75537;SDS011;64121;48.666;8.114;2023-06-22T12:14:10;11.05;;;8.20;;
75537;SDS011;64121;48.666;8.114;2023-06-22T12:16:37;10.07;;;7.57;;
75537;SDS011;64121;48.666;8.114;2023-06-22T12:19:02;8.90;;;7.35;;
75537;SDS011;64121;48.666;8.114;2023-06-22T12:21:27;10.95;;;7.30;;
75537;SDS011;64121;48.666;8.114;2023-06-22T12:23:53;8.98;;;6.85;;
75537;SDS011;64121;48.666;8.114;2023-06-22T12:26:18;9.00;;;7.80;;
75537;SDS011;64121;48.666;8.114;2023-06-22T12:28:43;9.57;;;7.50;;
75537;SDS011;64121;48.666;8.114;2023-06-22T12:31:09;12.45;;;7.38;;
75537;SDS011;64121;48.666;8.114;2023-06-22T12:33:35;13.13;;;8.27;;
75537;SDS011;64121;48.666;8.114;2023-06-22T12:36:01;11.70;;;8.65;;
75537;SDS011;64121;48.666;8.114;2023-06-22T12:38:26;11.88;;;7.85;;
75537;SDS011;64121;48.666;8.114;2023-06-22T12:40:51;11.32;;;7.65;;
75537;SDS011;64121;48.666;8.114;2023-06-22T12:43:17;11.98;;;8.45;;
75537;SDS011;64121;48.666;8.114;2023-06-22T12:45:42;10.90;;;8.35;;
75537;SDS011;64121;48.666;8.114;2023-06-22T12:48:08;11.73;;;7.55;;
75537;SDS011;64121;48.666;8.114;2023-06-22T12:50:35;10.30;;;7.63;;
75537;SDS011;64121;48.666;8.114;2023-06-22T12:53:00;8.23;;;7.40;;
75537;SDS011;64121;48.666;8.114;2023-06-22T12:55:25;9.95;;;8.00;;
75537;SDS011;64121;48.666;8.114;2023-06-22T12:57:51;13.05;;;7.90;;
75537;SDS011;64121;48.666;8.114;2023-06-22T13:00:16;10.15;;;7.80;;
75537;SDS011;64121;48.666;8.114;2023-06-22T13:02:42;10.13;;;7.85;;
75537;SDS011;64121;48.666;8.114;2023-06-22T13:05:07;12.20;;;8.00;;
75537;SDS011;64121;48.666;8.114;2023-06-22T13:07:34;12.77;;;7.63;;
75537;SDS011;64121;48.666;8.114;2023-06-22T13:09:59;10.60;;;7.65;;
75537;SDS011;64121;48.666;8.114;2023-06-22T13:12:25;9.25;;;7.22;;
75537;SDS011;64121;48.666;8.114;2023-06-22T13:14:50;9.55;;;7.97;;
75537;SDS011;64121;48.666;8.114;2023-06-22T13:17:15;12.75;;;7.63;;
75537;SDS011;64121;48.666;8.114;2023-06-22T13:19:41;8.98;;;7.47;;
75537;SDS011;64121;48.666;8.114;2023-06-22T13:22:09;10.10;;;7.97;;
75537;SDS011;64121;48.666;8.114;2023-06-22T13:24:52;13.40;;;7.75;;
75537;SDS011;64121;48.666;8.114;2023-06-22T13:27:18;11.50;;;8.70;;
75537;SDS011;64121;48.666;8.114;2023-06-22T13:29:43;12.53;;;7.80;;
75537;SDS011;64121;48.666;8.114;2023-06-22T13:32:08;10.10;;;7.30;;
75537;SDS011;64121;48.666;8.114;2023-06-22T13:34:34;11.73;;;8.00;;
75537;SDS011;64121;48.666;8.114;2023-06-22T13:36:59;11.13;;;8.18;;
75537;SDS011;64121;48.666;8.114;2023-06-22T13:39:24;10.10;;;8.20;;
75537;SDS011;64121;48.666;8.114;2023-06-22T13:41:51;11.88;;;7.40;;
75537;SDS011;64121;48.666;8.114;2023-06-22T13:44:16;12.02;;;7.97;;
75537;SDS011;64121;48.666;8.114;2023-06-22T13:46:42;9.43;;;7.22;;
75537;SDS011;64121;48.666;8.114;2023-06-22T13:49:07;16.58;;;8.15;;
75537;SDS011;64121;48.666;8.114;2023-06-22T13:51:32;10.55;;;7.50;;
75537;SDS011;64121;48.666;8.114;2023-06-22T13:53:58;8.95;;;7.32;;
75537;SDS011;64121;48.666;8.114;2023-06-22T13:56:23;10.50;;;7.13;;
75537;SDS011;64121;48.666;8.114;2023-06-22T13:58:50;9.07;;;7.72;;
75537;SDS011;64121;48.666;8.114;2023-06-22T14:01:15;11.70;;;6.70;;
75537;SDS011;64121;48.666;8.114;2023-06-22T14:03:40;12.30;;;7.50;;
75537;SDS011;64121;48.666;8.114;2023-06-22T14:06:06;9.52;;;6.95;;
75537;SDS011;64121;48.666;8.114;2023-06-22T14:08:31;13.68;;;7.28;;
75537;SDS011;64121;48.666;8.114;2023-06-22T14:10:56;10.65;;;6.40;;
75537;SDS011;64121;48.666;8.114;2023-06-22T14:13:22;10.27;;;6.82;;
75537;SDS011;64121;48.666;8.114;2023-06-22T14:15:48;11.30;;;7.03;;
75537;SDS011;64121;48.666;8.114;2023-06-22T14:18:14;10.90;;;7.07;;
75537;SDS011;64121;48.666;8.114;2023-06-22T14:20:39;11.48;;;6.82;;
75537;SDS011;64121;48.666;8.114;2023-06-22T14:23:04;11.48;;;6.88;;
75537;SDS011;64121;48.666;8.114;2023-06-22T14:25:30;12.35;;;6.80;;
75537;SDS011;64121;48.666;8.114;2023-06-22T14:27:55;10.43;;;6.45;;
75537;SDS011;64121;48.666;8.114;2023-06-22T14:30:20;11.85;;;6.78;;
75537;SDS011;64121;48.666;8.114;2023-06-22T14:32:47;10.23;;;6.72;;
75537;SDS011;64121;48.666;8.114;2023-06-22T14:35:12;11.95;;;6.82;;